sensor_id;sensor_type;location;lat;lon;timestamp;pressure;altitude;pressure_sealevel;temperature;humidity
41264;BME280;26998;48.714;9.414;2023-01-26T00:01:07;99977.59;;;0.06;100.00
41264;BME280;26998;48.714;9.414;2023-01-26T00:03:33;99994.94;;;-0.05;100.00
41264;BME280;26998;48.714;9.414;2023-01-26T00:06:08;100005.22;;;-0.14;100.00
41264;BME280;26998;48.714;9.414;2023-01-26T00:08:40;100028.56;;;-0.10;100.00
41264;BME280;26998;48.714;9.414;2023-01-26T00:11:10;100042.00;;;-0.14;100.00
41264;BME280;26998;48.714;9.414;2023-01-26T00:13:37;100076.06;;;-0.13;100.00
41264;BME280;26998;48.714;9.414;2023-01-26T00:16:07;100080.22;;;-0.23;100.00
41264;BME280;26998;48.714;9.414;2023-01-26T00:18:37;100102.72;;;-0.19;100.00
41264;BME280;26998;48.714;9.414;2023-01-26T00:21:05;100096.06;;;-0.37;100.00
41264;BME280;26998;48.714;9.414;2023-01-26T00:23:33;100090.38;;;-0.31;100.00
41264;BME280;26998;48.714;9.414;2023-01-26T00:26:00;100089.47;;;-0.30;100.00
41264;BME280;26998;48.714;9.414;2023-01-26T00:28:28;100086.72;;;-0.29;100.00
41264;BME280;26998;48.714;9.414;2023-01-26T00:31:09;100066.09;;;-0.35;100.00
41264;BME280;26998;48.714;9.414;2023-01-26T00:33:36;100064.72;;;-0.40;100.00
41264;BME280;26998;48.714;9.414;2023-01-26T00:36:02;100060.97;;;-0.36;100.00
41264;BME280;26998;48.714;9.414;2023-01-26T00:38:29;100064.72;;;-0.40;100.00
41264;BME280;26998;48.714;9.414;2023-01-26T00:40:55;100063.97;;;-0.42;100.00
41264;BME280;26998;48.714;9.414;2023-01-26T00:43:22;100078.16;;;-0.45;100.00
41264;BME280;26998;48.714;9.414;2023-01-26T00:45:48;100086.03;;;-0.45;100.00
41264;BME280;26998;48.714;9.414;2023-01-26T00:48:15;100088.66;;;-0.45;100.00
41264;BME280;26998;48.714;9.414;2023-01-26T00:50:42;100103.47;;;-0.44;100.00
41264;BME280;26998;48.714;9.414;2023-01-26T00:53:09;100102.44;;;-0.41;100.00
41264;BME280;26998;48.714;9.414;2023-01-26T00:55:37;100102.63;;;-0.44;100.00
41264;BME280;26998;48.714;9.414;2023-01-26T00:58:07;100119.41;;;-0.47;100.00
41264;BME280;26998;48.714;9.414;2023-01-26T01:00:37;100136.41;;;-0.53;100.00
41264;BME280;26998;48.714;9.414;2023-01-26T01:03:04;100165.66;;;-0.44;100.00
41264;BME280;26998;48.714;9.414;2023-01-26T01:05:33;100160.78;;;-0.51;100.00
41264;BME280;26998;48.714;9.414;2023-01-26T01:08:00;100160.91;;;-0.52;100.00
41264;BME280;26998;48.714;9.414;2023-01-26T01:10:27;100168.59;;;-0.49;100.00
41264;BME280;26998;48.714;9.414;2023-01-26T01:12:54;100175.06;;;-0.55;100.00
41264;BME280;26998;48.714;9.414;2023-01-26T01:15:21;100175.06;;;-0.55;100.00
41264;BME280;26998;48.714;9.414;2023-01-26T01:17:47;100177.75;;;-0.56;100.00
41264;BME280;26998;48.714;9.414;2023-01-26T01:20:14;100181.78;;;-0.51;100.00
41264;BME280;26998;48.714;9.414;2023-01-26T01:22:41;100182.63;;;-0.50;100.00
41264;BME280;26998;48.714;9.414;2023-01-26T01:25:08;100197.56;;;-0.51;100.00
41264;BME280;26998;48.714;9.414;2023-01-26T01:27:36;100198.38;;;-0.50;100.00
41264;BME280;26998;48.714;9.414;2023-01-26T01:30:03;100214.81;;;-0.47;100.00
41264;BME280;26998;48.714;9.414;2023-01-26T01:32:30;100194.53;;;-0.44;100.00
41264;BME280;26998;48.714;9.414;2023-01-26T01:34:57;100164.75;;;-0.43;100.00
41264;BME280;26998;48.714;9.414;2023-01-26T01:37:23;100149.25;;;-0.48;100.00
41264;BME280;26998;48.714;9.414;2023-01-26T01:39:50;100152.81;;;-0.49;100.00
41264;BME280;26998;48.714;9.414;2023-01-26T01:42:16;100160.97;;;-0.54;100.00
41264;BME280;26998;48.714;9.414;2023-01-26T01:44:45;100171.28;;;-0.51;100.00
41264;BME280;26998;48.714;9.414;2023-01-26T01:47:34;100181.06;;;-0.53;100.00
41264;BME280;26998;48.714;9.414;2023-01-26T01:50:01;100172.63;;;-0.58;100.00
41264;BME280;26998;48.714;9.414;2023-01-26T01:52:29;100178.44;;;-0.53;100.00
41264;BME280;26998;48.714;9.414;2023-01-26T01:55:03;100187.41;;;-0.57;100.00
41264;BME280;26998;48.714;9.414;2023-01-26T01:57:34;100188.63;;;-0.62;100.00
41264;BME280;26998;48.714;9.414;2023-01-26T02:00:07;100201.69;;;-0.61;100.00
41264;BME280;26998;48.714;9.414;2023-01-26T02:02:36;100200.00;;;-0.62;100.00
41264;BME280;26998;48.714;9.414;2023-01-26T02:05:12;100211.25;;;-0.60;100.00
41264;BME280;26998;48.714;9.414;2023-01-26T02:07:42;100215.56;;;-0.59;100.00
41264;BME280;26998;48.714;9.414;2023-01-26T02:10:09;100203.47;;;-0.61;100.00
41264;BME280;26998;48.714;9.414;2023-01-26T02:12:36;100197.47;;;-0.63;100.00
41264;BME280;26998;48.714;9.414;2023-01-26T02:15:04;100203.94;;;-0.55;100.00
41264;BME280;26998;48.714;9.414;2023-01-26T02:17:30;100208.06;;;-0.65;100.00
41264;BME280;26998;48.714;9.414;2023-01-26T02:28:17;100224.19;;;-0.57;100.00
41264;BME280;26998;48.714;9.414;2023-01-26T02:30:45;100214.63;;;-0.58;100.00
41264;BME280;26998;48.714;9.414;2023-01-26T02:35:45;100190.41;;;-0.63;100.00
41264;BME280;26998;48.714;9.414;2023-01-26T02:38:12;100189.31;;;-0.59;100.00
41264;BME280;26998;48.714;9.414;2023-01-26T02:40:53;100199.25;;;-0.64;100.00
41264;BME280;26998;48.714;9.414;2023-01-26T02:43:22;100200.56;;;-0.57;100.00
41264;BME280;26998;48.714;9.414;2023-01-26T02:45:50;100202.25;;;-0.56;100.00
41264;BME280;26998;48.714;9.414;2023-01-26T02:48:16;100192.59;;;-0.55;100.00
41264;BME280;26998;48.714;9.414;2023-01-26T02:50:46;100194.75;;;-0.62;100.00
41264;BME280;26998;48.714;9.414;2023-01-26T02:53:12;100177.28;;;-0.63;100.00
41264;BME280;26998;48.714;9.414;2023-01-26T02:55:39;100176.47;;;-0.63;100.00
41264;BME280;26998;48.714;9.414;2023-01-26T02:58:05;100170.06;;;-0.59;100.00
41264;BME280;26998;48.714;9.414;2023-01-26T03:00:34;100156.09;;;-0.60;100.00
41264;BME280;26998;48.714;9.414;2023-01-26T03:03:03;100145.78;;;-0.63;100.00
41264;BME280;26998;48.714;9.414;2023-01-26T03:05:35;100143.09;;;-0.61;100.00
41264;BME280;26998;48.714;9.414;2023-01-26T03:08:02;100141.28;;;-0.61;100.00
41264;BME280;26998;48.714;9.414;2023-01-26T03:10:28;100135.84;;;-0.58;100.00
41264;BME280;26998;48.714;9.414;2023-01-26T03:12:55;100132.47;;;-0.60;100.00
41264;BME280;26998;48.714;9.414;2023-01-26T03:15:21;100119.53;;;-0.63;100.00
41264;BME280;26998;48.714;9.414;2023-01-26T03:17:48;100117.66;;;-0.61;100.00
41264;BME280;26998;48.714;9.414;2023-01-26T03:20:14;100107.53;;;-0.67;100.00
41264;BME280;26998;48.714;9.414;2023-01-26T03:22:41;100105.88;;;-0.68;100.00
41264;BME280;26998;48.714;9.414;2023-01-26T03:25:08;100108.44;;;-0.54;100.00
41264;BME280;26998;48.714;9.414;2023-01-26T03:27:46;100090.19;;;-0.55;100.00
41264;BME280;26998;48.714;9.414;2023-01-26T03:30:16;100083.22;;;-0.56;100.00
41264;BME280;26998;48.714;9.414;2023-01-26T03:32:43;100084.53;;;-0.49;100.00
41264;BME280;26998;48.714;9.414;2023-01-26T03:35:10;100073.41;;;-0.53;100.00
41264;BME280;26998;48.714;9.414;2023-01-26T03:37:36;100056.31;;;-0.60;100.00
41264;BME280;26998;48.714;9.414;2023-01-26T03:40:03;100057.25;;;-0.47;100.00
41264;BME280;26998;48.714;9.414;2023-01-26T03:42:31;100037.66;;;-0.55;100.00
41264;BME280;26998;48.714;9.414;2023-01-26T03:44:57;100030.06;;;-0.60;100.00
41264;BME280;26998;48.714;9.414;2023-01-26T03:47:23;100042.47;;;-0.62;100.00
41264;BME280;26998;48.714;9.414;2023-01-26T03:49:50;100041.31;;;-0.58;100.00
41264;BME280;26998;48.714;9.414;2023-01-26T03:52:16;100042.28;;;-0.59;100.00
41264;BME280;26998;48.714;9.414;2023-01-26T03:54:43;100053.50;;;-0.57;100.00
41264;BME280;26998;48.714;9.414;2023-01-26T03:57:09;100058.56;;;-0.54;100.00
41264;BME280;26998;48.714;9.414;2023-01-26T03:59:36;100069.44;;;-0.45;100.00
41264;BME280;26998;48.714;9.414;2023-01-26T04:02:08;100077.09;;;-0.42;100.00
41264;BME280;26998;48.714;9.414;2023-01-26T04:04:34;100078.16;;;-0.45;100.00
41264;BME280;26998;48.714;9.414;2023-01-26T04:07:01;100094.34;;;-0.38;100.00
41264;BME280;26998;48.714;9.414;2023-01-26T04:09:28;100091.84;;;-0.40;100.00
41264;BME280;26998;48.714;9.414;2023-01-26T04:11:55;100094.34;;;-0.38;100.00
41264;BME280;26998;48.714;9.414;2023-01-26T04:14:21;100103.66;;;-0.47;100.00
41264;BME280;26998;48.714;9.414;2023-01-26T04:16:48;100107.63;;;-0.54;100.00
41264;BME280;26998;48.714;9.414;2023-01-26T04:19:14;100120.38;;;-0.62;100.00
41264;BME280;26998;48.714;9.414;2023-01-26T04:21:41;100137.84;;;-0.61;100.00
41264;BME280;26998;48.714;9.414;2023-01-26T04:24:07;100162.31;;;-0.61;100.00
41264;BME280;26998;48.714;9.414;2023-01-26T04:26:35;100175.63;;;-0.64;100.00
41264;BME280;26998;48.714;9.414;2023-01-26T04:29:13;100193.06;;;-0.63;100.00
41264;BME280;26998;48.714;9.414;2023-01-26T04:31:40;100208.44;;;-0.57;100.00
41264;BME280;26998;48.714;9.414;2023-01-26T04:34:12;99641.19;;;-0.68;100.00
41264;BME280;26998;48.714;9.414;2023-01-26T04:36:40;99599.50;;;-0.73;100.00
41264;BME280;26998;48.714;9.414;2023-01-26T04:39:07;99573.44;;;-0.63;100.00
41264;BME280;26998;48.714;9.414;2023-01-26T04:41:35;99548.31;;;-0.54;100.00
41264;BME280;26998;48.714;9.414;2023-01-26T04:44:01;99548.81;;;-0.49;100.00
41264;BME280;26998;48.714;9.414;2023-01-26T04:46:28;99536.31;;;-0.45;100.00
41264;BME280;26998;48.714;9.414;2023-01-26T04:48:55;99527.91;;;-0.51;100.00
41264;BME280;26998;48.714;9.414;2023-01-26T04:51:21;99521.28;;;-0.43;100.00
41264;BME280;26998;48.714;9.414;2023-01-26T04:53:48;99516.25;;;-0.47;100.00
41264;BME280;26998;48.714;9.414;2023-01-26T04:56:28;99517.56;;;-0.41;100.00
41264;BME280;26998;48.714;9.414;2023-01-26T04:58:57;99500.50;;;-0.47;100.00
41264;BME280;26998;48.714;9.414;2023-01-26T05:01:24;99502.16;;;-0.45;100.00
41264;BME280;26998;48.714;9.414;2023-01-26T05:03:51;99503.44;;;-0.51;100.00
41264;BME280;26998;48.714;9.414;2023-01-26T05:06:19;99498.81;;;-0.48;100.00
41264;BME280;26998;48.714;9.414;2023-01-26T05:08:46;99487.03;;;-0.42;100.00
41264;BME280;26998;48.714;9.414;2023-01-26T05:11:12;99487.63;;;-0.38;100.00
41264;BME280;26998;48.714;9.414;2023-01-26T05:13:39;99485.22;;;-0.41;100.00
41264;BME280;26998;48.714;9.414;2023-01-26T05:16:06;99485.59;;;-0.46;100.00
41264;BME280;26998;48.714;9.414;2023-01-26T05:18:32;99499.03;;;-0.51;100.00
41264;BME280;26998;48.714;9.414;2023-01-26T05:20:59;99515.75;;;-0.52;100.00
41264;BME280;26998;48.714;9.414;2023-01-26T05:23:26;99513.72;;;-0.48;100.00
41264;BME280;26998;48.714;9.414;2023-01-26T05:25:53;99522.66;;;-0.51;100.00
41264;BME280;26998;48.714;9.414;2023-01-26T05:28:20;99524.47;;;-0.51;100.00
41264;BME280;26998;48.714;9.414;2023-01-26T05:30:48;99534.75;;;-0.48;100.00
41264;BME280;26998;48.714;9.414;2023-01-26T05:33:14;99546.44;;;-0.52;100.00
41264;BME280;26998;48.714;9.414;2023-01-26T05:35:41;99548.81;;;-0.49;100.00
41264;BME280;26998;48.714;9.414;2023-01-26T05:38:08;99560.91;;;-0.47;100.00
41264;BME280;26998;48.714;9.414;2023-01-26T05:40:34;99567.31;;;-0.51;100.00
41264;BME280;26998;48.714;9.414;2023-01-26T05:43:01;99578.53;;;-0.49;100.00
41264;BME280;26998;48.714;9.414;2023-01-26T05:45:28;99574.97;;;-0.48;100.00
41264;BME280;26998;48.714;9.414;2023-01-26T05:47:55;99573.28;;;-0.49;100.00
41264;BME280;26998;48.714;9.414;2023-01-26T05:50:21;99573.59;;;-0.53;100.00
41264;BME280;26998;48.714;9.414;2023-01-26T05:52:48;99570.97;;;-0.53;100.00
41264;BME280;26998;48.714;9.414;2023-01-26T05:55:14;99567.53;;;-0.54;100.00
41264;BME280;26998;48.714;9.414;2023-01-26T05:57:41;99565.94;;;-0.56;100.00
41264;BME280;26998;48.714;9.414;2023-01-26T06:00:08;99561.56;;;-0.56;100.00
41264;BME280;26998;48.714;9.414;2023-01-26T06:02:36;99560.81;;;-0.58;100.00
41264;BME280;26998;48.714;9.414;2023-01-26T06:05:03;99564.19;;;-0.56;100.00
41264;BME280;26998;48.714;9.414;2023-01-26T06:07:30;99568.25;;;-0.52;100.00
41264;BME280;26998;48.714;9.414;2023-01-26T06:09:57;99563.22;;;-0.55;100.00
41264;BME280;26998;48.714;9.414;2023-01-26T06:12:24;99562.09;;;-0.63;100.00
41264;BME280;26998;48.714;9.414;2023-01-26T06:14:50;99567.03;;;-0.59;100.00
41264;BME280;26998;48.714;9.414;2023-01-26T06:17:17;99579.63;;;-0.64;100.00
41264;BME280;26998;48.714;9.414;2023-01-26T06:19:44;99581.22;;;-0.61;100.00
41264;BME280;26998;48.714;9.414;2023-01-26T06:22:11;99574.91;;;-0.59;100.00
41264;BME280;26998;48.714;9.414;2023-01-26T06:24:38;99570.94;;;-0.64;100.00
41264;BME280;26998;48.714;9.414;2023-01-26T06:27:11;99576.19;;;-0.64;100.00
41264;BME280;26998;48.714;9.414;2023-01-26T06:29:38;99576.28;;;-0.66;100.00
41264;BME280;26998;48.714;9.414;2023-01-26T06:32:05;99583.09;;;-0.63;100.00
41264;BME280;26998;48.714;9.414;2023-01-26T06:34:31;99596.34;;;-0.65;100.00
41264;BME280;26998;48.714;9.414;2023-01-26T06:36:58;99592.88;;;-0.65;100.00
41264;BME280;26998;48.714;9.414;2023-01-26T06:39:25;99595.59;;;-0.67;100.00
41264;BME280;26998;48.714;9.414;2023-01-26T06:41:51;99599.28;;;-0.70;100.00
41264;BME280;26998;48.714;9.414;2023-01-26T06:44:18;99606.94;;;-0.66;100.00
41264;BME280;26998;48.714;9.414;2023-01-26T06:46:44;99607.69;;;-0.64;100.00
41264;BME280;26998;48.714;9.414;2023-01-26T06:49:11;99607.56;;;-0.63;100.00
41264;BME280;26998;48.714;9.414;2023-01-26T06:54:09;99613.25;;;-0.69;100.00
41264;BME280;26998;48.714;9.414;2023-01-26T06:56:36;99607.06;;;-0.68;100.00
41264;BME280;26998;48.714;9.414;2023-01-26T06:59:03;99606.94;;;-0.66;100.00
41264;BME280;26998;48.714;9.414;2023-01-26T07:01:35;99613.16;;;-0.67;100.00
41264;BME280;26998;48.714;9.414;2023-01-26T07:04:02;99613.97;;;-0.67;100.00
41264;BME280;26998;48.714;9.414;2023-01-26T07:06:29;99617.66;;;-0.70;100.00
41264;BME280;26998;48.714;9.414;2023-01-26T07:08:55;99606.84;;;-0.65;100.00
41264;BME280;26998;48.714;9.414;2023-01-26T07:11:23;99615.44;;;-0.63;100.00
41264;BME280;26998;48.714;9.414;2023-01-26T07:13:50;99612.72;;;-0.61;100.00
41264;BME280;26998;48.714;9.414;2023-01-26T07:16:17;99618.91;;;-0.62;100.00
41264;BME280;26998;48.714;9.414;2023-01-26T07:18:46;99622.59;;;-0.65;100.00
41264;BME280;26998;48.714;9.414;2023-01-26T07:21:15;99631.19;;;-0.63;100.00
41264;BME280;26998;48.714;9.414;2023-01-26T07:23:42;99630.47;;;-0.65;100.00
41264;BME280;26998;48.714;9.414;2023-01-26T07:26:09;99633.81;;;-0.63;100.00
41264;BME280;26998;48.714;9.414;2023-01-26T07:28:36;99646.00;;;-0.62;100.00
41264;BME280;26998;48.714;9.414;2023-01-26T07:31:07;99637.28;;;-0.62;100.00
41264;BME280;26998;48.714;9.414;2023-01-26T07:33:35;99640.03;;;-0.64;100.00
41264;BME280;26998;48.714;9.414;2023-01-26T07:36:02;99650.41;;;-0.62;100.00
41264;BME280;26998;48.714;9.414;2023-01-26T07:38:29;99656.00;;;-0.67;100.00
41264;BME280;26998;48.714;9.414;2023-01-26T07:40:56;99658.41;;;-0.64;100.00
41264;BME280;26998;48.714;9.414;2023-01-26T07:43:23;99657.56;;;-0.64;100.00
41264;BME280;26998;48.714;9.414;2023-01-26T07:45:53;99650.72;;;-0.67;100.00
41264;BME280;26998;48.714;9.414;2023-01-26T07:48:22;99657.03;;;-0.70;100.00
41264;BME280;26998;48.714;9.414;2023-01-26T07:50:49;99658.81;;;-0.70;100.00
41264;BME280;26998;48.714;9.414;2023-01-26T07:53:17;99665.94;;;-0.72;100.00
41264;BME280;26998;48.714;9.414;2023-01-26T07:55:45;99670.28;;;-0.71;100.00
41264;BME280;26998;48.714;9.414;2023-01-26T07:58:12;99669.31;;;-0.70;100.00
41264;BME280;26998;48.714;9.414;2023-01-26T08:00:38;99667.66;;;-0.71;100.00
41264;BME280;26998;48.714;9.414;2023-01-26T08:03:05;99669.94;;;-0.66;100.00
41264;BME280;26998;48.714;9.414;2023-01-26T08:05:32;99666.28;;;-0.64;100.00
41264;BME280;26998;48.714;9.414;2023-01-26T08:07:59;99660.63;;;-0.71;100.00
41264;BME280;26998;48.714;9.414;2023-01-26T08:10:29;99660.28;;;-0.66;100.00
41264;BME280;26998;48.714;9.414;2023-01-26T08:12:58;99659.22;;;-0.63;100.00
41264;BME280;26998;48.714;9.414;2023-01-26T08:15:25;99655.16;;;-0.67;100.00
41264;BME280;26998;48.714;9.414;2023-01-26T08:17:53;99661.84;;;-0.63;100.00
41264;BME280;26998;48.714;9.414;2023-01-26T08:20:20;99653.88;;;-0.62;100.00
41264;BME280;26998;48.714;9.414;2023-01-26T08:22:46;99649.25;;;-0.58;100.00
41264;BME280;26998;48.714;9.414;2023-01-26T08:25:12;99657.22;;;-0.60;100.00
41264;BME280;26998;48.714;9.414;2023-01-26T08:27:39;99648.09;;;-0.67;100.00
41264;BME280;26998;48.714;9.414;2023-01-26T08:30:06;99645.81;;;-0.59;100.00
41264;BME280;26998;48.714;9.414;2023-01-26T08:32:33;99648.91;;;-0.54;100.00
41264;BME280;26998;48.714;9.414;2023-01-26T08:34:59;99653.13;;;-0.51;100.00
41264;BME280;26998;48.714;9.414;2023-01-26T08:37:26;99650.41;;;-0.62;100.00
41264;BME280;26998;48.714;9.414;2023-01-26T08:39:52;99645.06;;;-0.61;100.00
41264;BME280;26998;48.714;9.414;2023-01-26T08:42:20;99649.25;;;-0.58;100.00
41264;BME280;26998;48.714;9.414;2023-01-26T08:44:48;99648.41;;;-0.59;100.00
41264;BME280;26998;48.714;9.414;2023-01-26T08:47:14;99646.00;;;-0.62;100.00
41264;BME280;26998;48.714;9.414;2023-01-26T08:49:41;99636.22;;;-0.60;100.00
41264;BME280;26998;48.714;9.414;2023-01-26T08:52:07;99637.91;;;-0.59;100.00
41264;BME280;26998;48.714;9.414;2023-01-26T08:54:34;99637.81;;;-0.57;100.00
41264;BME280;26998;48.714;9.414;2023-01-26T08:57:00;99634.34;;;-0.58;100.00
41264;BME280;26998;48.714;9.414;2023-01-26T08:59:27;99625.72;;;-0.60;100.00
41264;BME280;26998;48.714;9.414;2023-01-26T09:01:53;99635.47;;;-0.49;100.00
41264;BME280;26998;48.714;9.414;2023-01-26T09:04:20;99628.88;;;-0.55;100.00
41264;BME280;26998;48.714;9.414;2023-01-26T09:06:46;99622.56;;;-0.52;100.00
41264;BME280;26998;48.714;9.414;2023-01-26T09:09:13;99613.44;;;-0.47;100.00
41264;BME280;26998;48.714;9.414;2023-01-26T09:11:39;99609.72;;;-0.44;100.00
41264;BME280;26998;48.714;9.414;2023-01-26T09:14:06;99596.94;;;-0.49;100.00
41264;BME280;26998;48.714;9.414;2023-01-26T09:16:32;99585.75;;;-0.39;100.00
41264;BME280;26998;48.714;9.414;2023-01-26T09:18:59;99590.50;;;-0.44;100.00
41264;BME280;26998;48.714;9.414;2023-01-26T09:21:26;99597.72;;;-0.35;100.00
41264;BME280;26998;48.714;9.414;2023-01-26T09:26:23;99593.47;;;-0.49;100.00
41264;BME280;26998;48.714;9.414;2023-01-26T09:28:51;99596.81;;;-0.47;100.00
41264;BME280;26998;48.714;9.414;2023-01-26T09:31:17;99599.44;;;-0.47;100.00
41264;BME280;26998;48.714;9.414;2023-01-26T09:33:44;99606.69;;;-0.51;100.00
41264;BME280;26998;48.714;9.414;2023-01-26T09:36:11;99610.28;;;-0.52;100.00
41264;BME280;26998;48.714;9.414;2023-01-26T09:38:38;99604.28;;;-0.54;100.00
41264;BME280;26998;48.714;9.414;2023-01-26T09:44:03;99603.84;;;-0.48;100.00
41264;BME280;26998;48.714;9.414;2023-01-26T09:46:42;99612.03;;;-0.39;100.00
41264;BME280;26998;48.714;9.414;2023-01-26T09:49:25;99607.38;;;-0.36;100.00
41264;BME280;26998;48.714;9.414;2023-01-26T09:52:11;99596.94;;;-0.49;100.00
41264;BME280;26998;48.714;9.414;2023-01-26T09:54:49;99601.00;;;-0.44;100.00
41264;BME280;26998;48.714;9.414;2023-01-26T09:57:37;99600.28;;;-0.47;100.00
41264;BME280;26998;48.714;9.414;2023-01-26T10:00:30;99590.88;;;-0.62;100.00
41264;BME280;26998;48.714;9.414;2023-01-26T10:08:30;99574.00;;;-0.71;100.00
41264;BME280;26998;48.714;9.414;2023-01-26T10:11:05;99580.59;;;-0.65;100.00
41264;BME280;26998;48.714;9.414;2023-01-26T10:13:35;99561.69;;;-0.70;100.00
41264;BME280;26998;48.714;9.414;2023-01-26T10:16:05;99555.41;;;-0.67;100.00
41264;BME280;26998;48.714;9.414;2023-01-26T10:18:50;99538.47;;;-0.63;100.00
41264;BME280;26998;48.714;9.414;2023-01-26T10:21:25;99547.69;;;-0.58;100.00
41264;BME280;26998;48.714;9.414;2023-01-26T10:23:54;99553.78;;;-0.57;100.00
41264;BME280;26998;48.714;9.414;2023-01-26T10:26:29;99545.06;;;-0.58;100.00
41264;BME280;26998;48.714;9.414;2023-01-26T10:28:56;99539.81;;;-0.58;100.00
41264;BME280;26998;48.714;9.414;2023-01-26T10:31:28;99522.41;;;-0.59;100.00
41264;BME280;26998;48.714;9.414;2023-01-26T10:33:58;99499.69;;;-0.60;100.00
41264;BME280;26998;48.714;9.414;2023-01-26T10:36:30;99489.25;;;-0.49;100.00
41264;BME280;26998;48.714;9.414;2023-01-26T10:39:06;99478.03;;;-0.51;100.00
41264;BME280;26998;48.714;9.414;2023-01-26T10:41:33;99490.47;;;-0.41;100.00
41264;BME280;26998;48.714;9.414;2023-01-26T10:46:40;99493.41;;;-0.33;100.00
41264;BME280;26998;48.714;9.414;2023-01-26T10:51:36;99470.34;;;-0.30;100.00
41264;BME280;26998;48.714;9.414;2023-01-26T10:59:27;99443.59;;;-0.35;100.00
41264;BME280;26998;48.714;9.414;2023-01-26T11:01:58;99435.47;;;-0.32;100.00
41264;BME280;26998;48.714;9.414;2023-01-26T11:04:26;99436.72;;;-0.25;100.00
41264;BME280;26998;48.714;9.414;2023-01-26T11:06:53;99442.31;;;-0.29;100.00
41264;BME280;26998;48.714;9.414;2023-01-26T11:09:26;99436.59;;;-0.58;100.00
41264;BME280;26998;48.714;9.414;2023-01-26T11:12:03;99440.78;;;-0.56;100.00
41264;BME280;26998;48.714;9.414;2023-01-26T11:14:31;99452.16;;;-0.44;100.00
41264;BME280;26998;48.714;9.414;2023-01-26T11:25:41;99457.53;;;-0.70;100.00
41264;BME280;26998;48.714;9.414;2023-01-26T11:31:40;99464.50;;;-0.57;100.00
41264;BME280;26998;48.714;9.414;2023-01-26T11:36:51;99459.41;;;-0.48;100.00
41264;BME280;26998;48.714;9.414;2023-01-26T11:42:16;99457.91;;;-0.63;100.00
41264;BME280;26998;48.714;9.414;2023-01-26T11:48:02;99482.84;;;-0.68;100.00
41264;BME280;26998;48.714;9.414;2023-01-26T11:50:42;99493.13;;;-0.65;100.00
41264;BME280;26998;48.714;9.414;2023-01-26T11:53:22;99490.50;;;-0.65;100.00
41264;BME280;26998;48.714;9.414;2023-01-26T11:56:13;99486.91;;;-0.64;100.00
41264;BME280;26998;48.714;9.414;2023-01-26T11:58:53;99485.34;;;-0.67;100.00
41264;BME280;26998;48.714;9.414;2023-01-26T12:01:26;99477.19;;;-0.75;100.00
41264;BME280;26998;48.714;9.414;2023-01-26T12:03:54;99479.03;;;-0.64;100.00
41264;BME280;26998;48.714;9.414;2023-01-26T12:06:36;99484.78;;;-0.59;100.00
41264;BME280;26998;48.714;9.414;2023-01-26T12:09:21;99483.50;;;-0.54;100.00
41264;BME280;26998;48.714;9.414;2023-01-26T12:11:56;99480.44;;;-0.48;100.00
41264;BME280;26998;48.714;9.414;2023-01-26T12:14:32;99469.22;;;-0.50;100.00
41264;BME280;26998;48.714;9.414;2023-01-26T12:17:15;99458.59;;;-0.48;100.00
41264;BME280;26998;48.714;9.414;2023-01-26T12:19:49;99439.44;;;-0.61;100.00
41264;BME280;26998;48.714;9.414;2023-01-26T12:22:30;99433.63;;;-0.54;100.00
41264;BME280;26998;48.714;9.414;2023-01-26T12:30:37;99422.06;;;-0.75;100.00
41264;BME280;26998;48.714;9.414;2023-01-26T12:33:09;99411.75;;;-0.65;100.00
41264;BME280;26998;48.714;9.414;2023-01-26T12:35:53;99412.84;;;-0.57;100.00
41264;BME280;26998;48.714;9.414;2023-01-26T12:38:40;99408.41;;;-0.56;100.00
41264;BME280;26998;48.714;9.414;2023-01-26T12:53:26;99359.31;;;-0.43;100.00
41264;BME280;26998;48.714;9.414;2023-01-26T12:56:25;99350.81;;;-0.47;100.00
41264;BME280;26998;48.714;9.414;2023-01-26T12:58:56;99344.38;;;-0.42;100.00
41264;BME280;26998;48.714;9.414;2023-01-26T13:01:25;99333.63;;;-0.51;100.00
41264;BME280;26998;48.714;9.414;2023-01-26T13:04:08;99341.94;;;-0.57;100.00
41264;BME280;26998;48.714;9.414;2023-01-26T13:06:36;99348.63;;;-0.64;100.00
41264;BME280;26998;48.714;9.414;2023-01-26T13:09:24;99350.41;;;-0.64;100.00
41264;BME280;26998;48.714;9.414;2023-01-26T13:11:58;99360.09;;;-0.54;100.00
41264;BME280;26998;48.714;9.414;2023-01-26T13:19:53;99343.97;;;-0.72;100.00
41264;BME280;26998;48.714;9.414;2023-01-26T13:25:12;99353.34;;;-0.80;100.00
41264;BME280;26998;48.714;9.414;2023-01-26T13:27:45;99379.28;;;-0.64;100.00
41264;BME280;26998;48.714;9.414;2023-01-26T13:33:01;99367.44;;;-0.70;100.00
41264;BME280;26998;48.714;9.414;2023-01-26T13:35:30;99379.38;;;-0.66;100.00
41264;BME280;26998;48.714;9.414;2023-01-26T13:38:01;99387.78;;;-0.61;100.00
41264;BME280;26998;48.714;9.414;2023-01-26T13:40:33;99368.19;;;-0.68;100.00
41264;BME280;26998;48.714;9.414;2023-01-26T13:43:18;99373.91;;;-0.63;100.00
41264;BME280;26998;48.714;9.414;2023-01-26T13:46:09;99367.16;;;-0.54;100.00
41264;BME280;26998;48.714;9.414;2023-01-26T13:48:50;99362.72;;;-0.54;100.00
41264;BME280;26998;48.714;9.414;2023-01-26T13:51:24;99368.81;;;-0.53;100.00
41264;BME280;26998;48.714;9.414;2023-01-26T13:54:06;99371.19;;;-0.61;100.00
41264;BME280;26998;48.714;9.414;2023-01-26T13:56:42;99389.94;;;-0.55;100.00
41264;BME280;26998;48.714;9.414;2023-01-26T14:01:52;99385.88;;;-0.59;100.00
41264;BME280;26998;48.714;9.414;2023-01-26T14:04:22;99391.13;;;-0.59;100.00
41264;BME280;26998;48.714;9.414;2023-01-26T14:07:01;99403.06;;;-0.55;100.00
41264;BME280;26998;48.714;9.414;2023-01-26T14:09:32;99405.41;;;-0.63;100.00
41264;BME280;26998;48.714;9.414;2023-01-26T14:12:03;99403.75;;;-0.64;100.00
41264;BME280;26998;48.714;9.414;2023-01-26T14:14:32;99400.16;;;-0.63;100.00
41264;BME280;26998;48.714;9.414;2023-01-26T14:17:26;99392.75;;;-0.69;100.00
41264;BME280;26998;48.714;9.414;2023-01-26T14:19:53;99392.41;;;-0.64;100.00
41264;BME280;26998;48.714;9.414;2023-01-26T14:22:20;99391.22;;;-0.72;100.00
41264;BME280;26998;48.714;9.414;2023-01-26T14:24:49;99396.94;;;-0.66;100.00
41264;BME280;26998;48.714;9.414;2023-01-26T14:27:35;99389.28;;;-0.70;100.00